Time;durP1;ratioP1;P1;durP2;ratioP2;P2;SDS_P1;SDS_P2;PMS_P1;PMS_P2;Temp;Humidity;BMP_temperature;BMP_pressure;BME280_temperature;BME280_humidity;BME280_pressure;Samples;Min_cycle;Max_cycle;Signal;HPM_P1;HPM_P2
2022/06/27 00:02:11;;;;;;;5.38;1.05;;;16.90;99.90;;;;;;5029605;28;20116;-80
2022/06/27 00:04:37;;;;;;;6.78;1.17;;;17.00;99.90;;;;;;5034175;28;20030;-80
2022/06/27 00:07:03;;;;;;;8.80;1.10;;;16.90;99.90;;;;;;5035770;28;20029;-80
2022/06/27 00:09:28;;;;;;;8.63;1.20;;;16.90;99.90;;;;;;5040302;28;20190;-81
2022/06/27 00:11:55;;;;;;;6.63;1.30;;;16.90;99.90;;;;;;5035425;28;20087;-80
2022/06/27 00:14:21;;;;;;;7.25;1.40;;;17.00;99.90;;;;;;5039771;28;20189;-80
2022/06/27 00:16:47;;;;;;;8.18;1.02;;;17.00;99.90;;;;;;5037808;28;20436;-80
2022/06/27 00:19:13;;;;;;;7.57;1.33;;;16.90;99.90;;;;;;5036356;28;20095;-80
2022/06/27 00:21:38;;;;;;;8.55;1.20;;;16.90;99.90;;;;;;5038005;28;20025;-80
2022/06/27 00:24:04;;;;;;;12.38;1.45;;;16.90;99.90;;;;;;5047162;28;20418;-80
2022/06/27 00:26:30;;;;;;;5.32;0.90;;;16.80;99.90;;;;;;5038309;28;20029;-79
2022/06/27 00:28:56;;;;;;;8.88;1.63;;;16.90;99.90;;;;;;5035742;28;20030;-80
2022/06/27 00:31:21;;;;;;;11.88;1.60;;;16.80;99.90;;;;;;5041424;28;20494;-80
2022/06/27 00:33:47;;;;;;;7.63;1.23;;;16.80;99.90;;;;;;5040696;28;20092;-79
2022/06/27 00:36:13;;;;;;;4.78;1.10;;;16.70;99.90;;;;;;5038403;28;20025;-79
2022/06/27 00:38:38;;;;;;;10.02;1.85;;;16.70;99.90;;;;;;5033439;28;20108;-79
2022/06/27 00:41:04;;;;;;;6.70;1.25;;;16.80;99.90;;;;;;5046222;28;20097;-79
2022/06/27 00:43:30;;;;;;;7.50;1.10;;;16.70;99.90;;;;;;5034329;28;20053;-80
2022/06/27 00:45:56;;;;;;;8.27;1.40;;;16.70;99.90;;;;;;5039347;28;20018;-79
2022/06/27 00:48:21;;;;;;;7.72;1.00;;;16.60;99.90;;;;;;5037540;28;20021;-79
2022/06/27 00:50:47;;;;;;;9.98;1.38;;;16.60;99.90;;;;;;5037177;28;20559;-79
2022/06/27 00:53:13;;;;;;;6.03;1.70;;;16.60;99.90;;;;;;5046914;28;20044;-79
2022/06/27 00:55:39;;;;;;;7.32;1.17;;;16.60;99.90;;;;;;5033482;28;20141;-79
2022/06/27 00:58:05;;;;;;;6.22;1.10;;;16.60;99.90;;;;;;5033876;28;20106;-79
2022/06/27 01:00:31;;;;;;;10.35;1.48;;;16.50;99.90;;;;;;5033929;28;20057;-79
2022/06/27 01:02:57;;;;;;;7.65;1.60;;;16.60;99.90;;;;;;5032723;28;20405;-79
2022/06/27 01:05:22;;;;;;;8.90;1.42;;;16.60;99.90;;;;;;5048128;28;20105;-79
2022/06/27 01:07:48;;;;;;;6.78;0.90;;;16.50;99.90;;;;;;5038024;28;20075;-79
2022/06/27 01:10:15;;;;;;;12.60;1.35;;;16.50;99.90;;;;;;5034534;28;20013;-79
2022/06/27 01:12:41;;;;;;;7.38;1.48;;;16.50;99.90;;;;;;5039808;28;20037;-79
2022/06/27 01:15:09;;;;;;;5.72;1.10;;;16.50;99.90;;;;;;5037385;28;20021;-79
2022/06/27 01:17:36;;;;;;;10.68;1.42;;;16.50;99.90;;;;;;5035585;28;20022;-79
2022/06/27 01:20:03;;;;;;;6.72;1.00;;;16.50;99.90;;;;;;5034440;28;20128;-79
2022/06/27 01:22:29;;;;;;;5.45;1.20;;;16.40;99.90;;;;;;5038986;28;20401;-79
2022/06/27 01:24:55;;;;;;;7.05;1.83;;;16.40;99.90;;;;;;5032538;28;20028;-79
2022/06/27 01:27:21;;;;;;;5.80;0.85;;;16.40;99.90;;;;;;5032678;28;20022;-79
2022/06/27 01:29:47;;;;;;;9.68;1.50;;;16.30;99.90;;;;;;5034254;28;20026;-79
2022/06/27 01:32:12;;;;;;;5.50;0.88;;;16.30;99.90;;;;;;5038613;28;20132;-79
2022/06/27 01:34:38;;;;;;;8.38;1.10;;;16.20;99.90;;;;;;5035378;28;20060;-79
2022/06/27 01:37:04;;;;;;;7.35;1.45;;;16.20;99.90;;;;;;5032616;28;20037;-79
2022/06/27 01:39:30;;;;;;;9.85;1.35;;;16.10;99.90;;;;;;5036021;28;20018;-79
2022/06/27 01:41:58;;;;;;;6.70;1.20;;;16.10;99.90;;;;;;5030432;28;20303;-79
2022/06/27 01:44:26;;;;;;;5.18;1.00;;;16.10;99.90;;;;;;5034588;28;20267;-79
2022/06/27 01:46:56;;;;;;;9.48;1.70;;;16.00;99.90;;;;;;5032185;28;20037;-79
2022/06/27 01:49:21;;;;;;;4.55;1.40;;;16.00;99.90;;;;;;5033364;28;20025;-79
2022/06/27 01:51:51;;;;;;;8.75;1.27;;;16.00;99.90;;;;;;5037494;28;20099;-79
2022/06/27 01:54:19;;;;;;;6.05;1.40;;;15.90;99.90;;;;;;5048610;28;20025;-79
2022/06/27 01:56:46;;;;;;;5.57;1.40;;;15.90;99.90;;;;;;5032122;28;20374;-79
2022/06/27 01:59:13;;;;;;;11.05;1.83;;;15.80;99.90;;;;;;5031898;28;20117;-79
2022/06/27 02:01:40;;;;;;;7.22;1.30;;;15.80;99.90;;;;;;5031268;28;20021;-79
2022/06/27 02:04:06;;;;;;;8.98;1.33;;;15.80;99.90;;;;;;5031894;28;20351;-79
2022/06/27 02:06:32;;;;;;;8.27;1.25;;;15.90;99.90;;;;;;5039631;28;20214;-79
2022/06/27 02:08:58;;;;;;;9.30;1.30;;;16.00;99.90;;;;;;5032304;28;20028;-80
2022/06/27 02:11:26;;;;;;;5.65;1.02;;;16.00;99.90;;;;;;5031690;28;20032;-79
2022/06/27 02:13:52;;;;;;;7.93;1.67;;;16.00;99.90;;;;;;5038782;28;20025;-79
2022/06/27 02:16:19;;;;;;;6.53;1.33;;;16.00;99.90;;;;;;5043397;28;20033;-79
2022/06/27 02:18:45;;;;;;;6.65;1.10;;;16.00;99.90;;;;;;5034591;28;20021;-79
2022/06/27 02:21:13;;;;;;;9.00;1.40;;;16.10;99.90;;;;;;5036635;28;20030;-79
2022/06/27 02:23:40;;;;;;;5.70;1.10;;;16.00;99.90;;;;;;5033322;28;20037;-79
2022/06/27 02:26:07;;;;;;;4.13;0.93;;;16.00;99.90;;;;;;5033524;28;20043;-79
2022/06/27 02:28:34;;;;;;;8.52;1.63;;;16.00;99.90;;;;;;5035210;28;20033;-79
2022/06/27 02:31:00;;;;;;;5.65;1.05;;;15.90;99.90;;;;;;5031038;28;20033;-79
2022/06/27 02:33:41;;;;;;;7.68;1.48;;;15.90;99.90;;;;;;5031306;28;20465;-79
2022/06/27 02:36:11;;;;;;;6.82;1.20;;;15.80;99.90;;;;;;5043700;28;20440;-79
2022/06/27 02:38:40;;;;;;;8.85;1.73;;;15.80;99.90;;;;;;5031820;28;20090;-79
2022/06/27 02:41:09;;;;;;;9.23;1.27;;;15.80;99.90;;;;;;5039322;28;20117;-79
2022/06/27 02:43:37;;;;;;;8.57;1.10;;;15.70;99.90;;;;;;5037023;28;20243;-79
2022/06/27 02:46:03;;;;;;;8.23;1.48;;;15.70;99.90;;;;;;5033199;28;20029;-79
2022/06/27 02:48:32;;;;;;;7.90;1.40;;;15.70;99.90;;;;;;5035197;28;20241;-79
2022/06/27 02:51:05;;;;;;;7.20;1.30;;;15.70;99.90;;;;;;5032683;28;20036;-79
2022/06/27 02:53:48;;;;;;;9.52;1.75;;;15.60;99.90;;;;;;5031651;28;20423;-79
2022/06/27 02:56:20;;;;;;;6.47;1.15;;;15.50;99.90;;;;;;5030444;28;20029;-79
2022/06/27 02:58:56;;;;;;;7.15;1.38;;;15.40;99.90;;;;;;5032748;28;20489;-79
2022/06/27 03:01:22;;;;;;;5.80;0.98;;;15.40;99.90;;;;;;5028941;28;20044;-80
2022/06/27 03:03:49;;;;;;;4.47;0.90;;;15.30;99.90;;;;;;5030943;28;20032;-79
2022/06/27 03:06:15;;;;;;;11.15;2.13;;;15.20;99.90;;;;;;5031766;28;20021;-79
2022/06/27 03:08:50;;;;;;;5.10;1.00;;;15.20;99.90;;;;;;5034207;28;20035;-79
2022/06/27 03:11:18;;;;;;;9.27;1.58;;;15.10;99.90;;;;;;5030678;28;20026;-79
2022/06/27 03:13:45;;;;;;;5.65;1.20;;;15.10;99.90;;;;;;5036405;28;20031;-79
2022/06/27 03:16:12;;;;;;;6.70;1.10;;;15.10;99.90;;;;;;5041842;28;20493;-79
2022/06/27 03:18:37;;;;;;;5.97;1.20;;;15.10;99.90;;;;;;5034441;28;20025;-79
2022/06/27 03:21:03;;;;;;;10.68;1.58;;;15.10;99.90;;;;;;5030796;28;20033;-79
2022/06/27 03:23:30;;;;;;;7.13;1.30;;;15.00;99.90;;;;;;5031524;28;20033;-79
2022/06/27 03:25:56;;;;;;;9.85;1.27;;;15.00;99.90;;;;;;5031804;28;20063;-79
2022/06/27 03:28:23;;;;;;;8.80;1.38;;;15.00;99.90;;;;;;5032358;28;20022;-79
2022/06/27 03:30:49;;;;;;;5.82;1.30;;;15.00;99.90;;;;;;5033638;28;20101;-79
2022/06/27 03:33:15;;;;;;;6.97;1.38;;;15.10;99.90;;;;;;5030350;28;20064;-79
2022/06/27 03:35:41;;;;;;;10.93;1.55;;;15.30;99.90;;;;;;5031536;28;20106;-79
2022/06/27 03:38:07;;;;;;;8.02;1.13;;;15.30;99.90;;;;;;5030638;28;20029;-79
2022/06/27 03:40:33;;;;;;;7.15;1.50;;;15.40;99.90;;;;;;5039399;28;20084;-79
2022/06/27 03:42:59;;;;;;;5.72;1.45;;;15.50;99.90;;;;;;5036428;28;20165;-79
2022/06/27 03:45:25;;;;;;;7.32;1.65;;;15.60;99.90;;;;;;5036227;28;20493;-79
2022/06/27 03:47:56;;;;;;;8.15;1.33;;;15.70;99.90;;;;;;5037585;28;20022;-79
2022/06/27 03:50:23;;;;;;;6.47;1.25;;;15.70;99.90;;;;;;5029744;28;20040;-79
2022/06/27 03:52:49;;;;;;;14.20;1.30;;;15.80;99.90;;;;;;5050250;28;20309;-79
2022/06/27 03:55:16;;;;;;;5.50;1.40;;;15.90;99.90;;;;;;5039955;28;20037;-79
2022/06/27 03:57:52;;;;;;;9.05;1.67;;;15.90;99.90;;;;;;5030006;28;20030;-79
2022/06/27 04:00:19;;;;;;;7.75;1.88;;;15.90;99.90;;;;;;5040280;28;20108;-80
2022/06/27 04:02:45;;;;;;;8.15;1.40;;;16.00;99.90;;;;;;5030023;28;20044;-79
2022/06/27 04:05:11;;;;;;;6.38;1.20;;;16.00;99.90;;;;;;5031999;28;20014;-79
2022/06/27 04:07:38;;;;;;;7.63;1.20;;;16.00;99.90;;;;;;5029676;28;20112;-79
2022/06/27 04:10:05;;;;;;;9.55;1.08;;;16.10;99.90;;;;;;5029442;28;20072;-79
2022/06/27 04:12:31;;;;;;;9.73;1.00;;;16.10;99.90;;;;;;5029557;28;20026;-79
2022/06/27 04:14:57;;;;;;;6.43;1.27;;;16.10;99.90;;;;;;5042719;28;20090;-79
2022/06/27 04:17:22;;;;;;;9.05;1.13;;;16.10;99.90;;;;;;5037443;28;20236;-79
2022/06/27 04:19:48;;;;;;;7.88;1.10;;;16.10;99.90;;;;;;5031142;28;20444;-79
2022/06/27 04:22:14;;;;;;;6.82;1.52;;;16.10;99.90;;;;;;5029580;28;20053;-79
2022/06/27 04:24:41;;;;;;;8.48;1.90;;;16.10;99.90;;;;;;5029566;28;20021;-79
2022/06/27 04:27:07;;;;;;;10.07;1.60;;;16.10;99.90;;;;;;5036054;28;20017;-81
2022/06/27 04:29:33;;;;;;;11.25;1.92;;;16.10;99.90;;;;;;5043547;28;20053;-79
2022/06/27 04:31:59;;;;;;;9.32;1.65;;;16.10;99.90;;;;;;5033140;28;20071;-80
2022/06/27 04:34:24;;;;;;;8.77;1.45;;;16.10;99.90;;;;;;5030834;28;20097;-79
2022/06/27 04:36:50;;;;;;;7.70;1.40;;;16.10;99.90;;;;;;5029299;28;20505;-79
2022/06/27 04:39:17;;;;;;;4.32;1.05;;;16.10;99.90;;;;;;5033666;28;20025;-79
2022/06/27 04:41:44;;;;;;;7.20;0.90;;;16.10;99.90;;;;;;5029050;28;20045;-79
2022/06/27 04:44:11;;;;;;;7.50;1.25;;;16.10;99.90;;;;;;5029289;28;20485;-79
2022/06/27 04:46:37;;;;;;;6.65;1.50;;;16.10;99.90;;;;;;5031031;28;20029;-79
2022/06/27 04:49:03;;;;;;;8.60;1.92;;;16.10;99.90;;;;;;5032726;28;20535;-79
2022/06/27 04:51:29;;;;;;;8.25;2.20;;;16.10;99.90;;;;;;5036174;28;20029;-79
2022/06/27 04:53:55;;;;;;;11.70;3.58;;;16.10;99.90;;;;;;5041141;28;20057;-79
2022/06/27 04:56:21;;;;;;;9.50;3.83;;;16.10;99.90;;;;;;5035355;28;20273;-80
2022/06/27 04:58:47;;;;;;;11.00;2.90;;;16.10;99.90;;;;;;5033596;28;20288;-79
2022/06/27 05:01:12;;;;;;;9.98;2.50;;;16.10;99.90;;;;;;5032796;28;20029;-79
2022/06/27 05:03:38;;;;;;;11.02;2.03;;;16.10;99.90;;;;;;5033714;28;20161;-79
2022/06/27 05:06:04;;;;;;;10.38;3.38;;;16.10;99.90;;;;;;5032437;28;20385;-79
2022/06/27 05:08:31;;;;;;;6.20;2.20;;;16.20;99.90;;;;;;5032484;28;20025;-79
2022/06/27 05:10:57;;;;;;;8.82;3.15;;;16.20;99.90;;;;;;5033691;28;20032;-79
2022/06/27 05:13:23;;;;;;;7.88;3.10;;;16.30;99.90;;;;;;5038710;28;20209;-79
2022/06/27 05:15:48;;;;;;;10.27;3.05;;;16.40;99.90;;;;;;5043001;28;20061;-79
2022/06/27 05:18:15;;;;;;;6.65;1.60;;;16.40;99.90;;;;;;5035767;28;20560;-79
2022/06/27 05:20:42;;;;;;;4.95;1.00;;;16.50;99.90;;;;;;5040593;28;20052;-79
2022/06/27 05:23:08;;;;;;;6.90;1.45;;;16.60;99.90;;;;;;5032334;28;20029;-79
2022/06/27 05:25:34;;;;;;;11.00;1.08;;;16.70;99.90;;;;;;5032201;28;20018;-79
2022/06/27 05:28:02;;;;;;;7.78;1.17;;;16.80;99.90;;;;;;5032027;28;20485;-79
2022/06/27 05:30:28;;;;;;;13.02;1.85;;;16.90;99.90;;;;;;5033256;28;20029;-79
2022/06/27 05:32:54;;;;;;;7.32;1.70;;;17.00;99.90;;;;;;5034703;28;20060;-79
2022/06/27 05:35:23;;;;;;;7.00;1.20;;;17.10;99.90;;;;;;5038079;28;20056;-79
2022/06/27 05:37:50;;;;;;;5.45;1.05;;;17.20;99.90;;;;;;5038019;28;20083;-79
2022/06/27 05:40:17;;;;;;;8.02;1.23;;;17.40;99.90;;;;;;5031879;28;20512;-79
2022/06/27 05:42:43;;;;;;;6.50;1.02;;;17.50;99.90;;;;;;5033189;28;20033;-79
2022/06/27 05:45:10;;;;;;;5.30;1.20;;;17.50;99.90;;;;;;5042475;28;20029;-88
2022/06/27 05:47:36;;;;;;;6.38;1.23;;;17.50;99.90;;;;;;5032811;28;20261;-86
2022/06/27 05:50:04;;;;;;;3.95;1.35;;;17.60;99.90;;;;;;5031850;28;20523;-86
2022/06/27 05:52:30;;;;;;;5.90;1.25;;;17.50;99.90;;;;;;5051191;28;20021;-87
2022/06/27 05:54:56;;;;;;;8.40;1.33;;;17.40;99.90;;;;;;5056722;28;20028;-87
2022/06/27 05:57:24;;;;;;;6.18;1.55;;;17.30;99.90;;;;;;5050956;28;20124;-88
2022/06/27 05:59:51;;;;;;;5.53;1.00;;;17.30;99.90;;;;;;5049982;28;20017;-88
2022/06/27 06:02:16;;;;;;;5.53;0.73;;;17.20;99.90;;;;;;5048404;28;20041;-87
2022/06/27 06:04:43;;;;;;;7.68;1.17;;;17.20;99.90;;;;;;5045923;28;20428;-87
2022/06/27 06:07:09;;;;;;;6.30;1.38;;;17.20;99.90;;;;;;5048710;28;20548;-87
2022/06/27 06:09:35;;;;;;;8.20;1.00;;;17.30;99.90;;;;;;5049818;28;20013;-88
2022/06/27 06:12:01;;;;;;;9.07;1.70;;;17.30;99.90;;;;;;5043066;28;20025;-87
2022/06/27 06:14:28;;;;;;;6.95;1.30;;;17.30;99.90;;;;;;5031032;28;20049;-87
2022/06/27 06:16:54;;;;;;;5.07;1.23;;;17.40;99.90;;;;;;5031575;28;20022;-88
2022/06/27 06:19:20;;;;;;;6.85;1.05;;;17.50;99.90;;;;;;5031229;28;20022;-88
2022/06/27 06:21:46;;;;;;;9.90;1.48;;;17.50;99.90;;;;;;5036668;28;20040;-87
2022/06/27 06:24:12;;;;;;;5.10;1.10;;;17.70;99.90;;;;;;5054475;28;20020;-88
2022/06/27 06:26:38;;;;;;;6.40;1.15;;;17.90;99.90;;;;;;5057433;28;20301;-87
2022/06/27 06:29:14;;;;;;;8.02;1.35;;;18.10;99.90;;;;;;5059585;28;20029;-87
2022/06/27 06:31:43;;;;;;;5.68;1.17;;;18.20;99.90;;;;;;5059854;28;20028;-87
2022/06/27 06:34:11;;;;;;;8.40;1.52;;;18.20;99.90;;;;;;5044083;28;20252;-87
2022/06/27 06:36:38;;;;;;;7.00;1.20;;;18.10;99.90;;;;;;5041148;28;20025;-87
2022/06/27 06:39:08;;;;;;;7.03;1.40;;;17.90;99.90;;;;;;5041821;28;20052;-88
2022/06/27 06:41:35;;;;;;;4.50;1.10;;;17.70;99.90;;;;;;5040865;28;20038;-88
2022/06/27 06:44:05;;;;;;;5.72;1.42;;;17.60;99.90;;;;;;5041264;28;20078;-88
2022/06/27 06:46:35;;;;;;;6.88;1.40;;;17.60;99.90;;;;;;5041239;28;20028;-88
2022/06/27 06:49:06;;;;;;;6.63;0.90;;;17.70;99.90;;;;;;5041397;28;20029;-88
2022/06/27 06:51:36;;;;;;;7.60;1.20;;;17.80;99.90;;;;;;5038516;28;20438;-88
2022/06/27 06:54:04;;;;;;;7.30;1.63;;;18.00;99.90;;;;;;5044225;28;20215;-88
2022/06/27 06:56:30;;;;;;;5.28;1.23;;;18.00;99.90;;;;;;5030417;28;20028;-88
2022/06/27 06:58:57;;;;;;;5.32;1.20;;;18.00;99.90;;;;;;5030459;28;20101;-88
2022/06/27 07:01:23;;;;;;;6.85;1.25;;;18.00;99.90;;;;;;5030064;28;20030;-87
2022/06/27 07:03:49;;;;;;;6.32;1.25;;;18.10;99.90;;;;;;5029127;28;20449;-88
2022/06/27 07:06:17;;;;;;;8.23;1.35;;;18.00;99.90;;;;;;5030508;28;20096;-88
2022/06/27 07:08:44;;;;;;;5.43;1.10;;;18.00;99.90;;;;;;5030536;28;20072;-87
2022/06/27 07:11:10;;;;;;;5.38;0.90;;;18.00;99.90;;;;;;5030554;28;20393;-88
2022/06/27 07:13:38;;;;;;;6.85;1.02;;;18.00;99.90;;;;;;5028885;28;20032;-88
2022/06/27 07:16:05;;;;;;;6.47;0.90;;;18.00;99.90;;;;;;5029018;28;20541;-87
2022/06/27 07:18:32;;;;;;;7.45;1.30;;;18.00;99.90;;;;;;5028800;28;20029;-88
2022/06/27 07:20:59;;;;;;;9.63;1.35;;;18.10;99.90;;;;;;5030082;28;20022;-88
2022/06/27 07:23:24;;;;;;;5.68;1.20;;;18.20;99.90;;;;;;5028651;28;20059;-87
2022/06/27 07:25:50;;;;;;;6.15;1.50;;;18.30;99.90;;;;;;5030180;28;20473;-88
2022/06/27 07:28:16;;;;;;;6.30;0.98;;;18.50;99.90;;;;;;5030649;28;20036;-88
2022/06/27 07:30:43;;;;;;;6.53;1.40;;;18.70;99.90;;;;;;5028561;28;20420;-88
2022/06/27 07:33:09;;;;;;;5.45;1.00;;;18.80;99.90;;;;;;5030825;28;20021;-88
2022/06/27 07:35:35;;;;;;;4.70;1.08;;;18.70;99.90;;;;;;5030016;28;20021;-88
2022/06/27 07:38:02;;;;;;;10.50;1.50;;;18.60;99.90;;;;;;5032511;28;20060;-87
2022/06/27 07:40:27;;;;;;;9.93;1.48;;;18.40;99.90;;;;;;5034570;28;20120;-88
2022/06/27 07:42:54;;;;;;;6.55;1.20;;;18.20;99.90;;;;;;5029445;28;20135;-88
2022/06/27 07:45:23;;;;;;;9.43;1.60;;;18.40;99.90;;;;;;5029827;28;20036;-88
2022/06/27 07:47:48;;;;;;;9.93;1.52;;;18.70;99.90;;;;;;5028479;28;20112;-88
2022/06/27 07:53:13;;;;;;;5.68;0.80;;;19.40;99.90;;;;;;5043471;28;20028;-88
2022/06/27 07:55:44;;;;;;;5.80;0.98;;;19.30;99.90;;;;;;5034089;28;20440;-88
2022/06/27 07:58:14;;;;;;;8.90;1.00;;;19.10;99.90;;;;;;5029485;28;20049;-87
2022/06/27 08:00:41;;;;;;;8.00;1.20;;;18.80;99.90;;;;;;5029785;28;20075;-88
2022/06/27 08:03:51;;;;;;;4.95;1.17;;;18.70;99.90;;;;;;5029449;28;20600;-88
2022/06/27 08:05:53;;;;;;;4.75;1.15;;;18.70;99.90;;;;;;5032190;28;20033;-88
2022/06/27 08:08:21;;;;;;;3.17;0.77;;;18.80;99.90;;;;;;5028456;28;20032;-88
2022/06/27 08:10:47;;;;;;;4.43;0.70;;;19.00;99.90;;;;;;5028443;28;20457;-88
2022/06/27 08:13:13;;;;;;;6.95;1.20;;;19.10;99.90;;;;;;5029775;28;20101;-88
2022/06/27 08:15:40;;;;;;;4.38;0.93;;;19.10;99.90;;;;;;5028380;28;20108;-88
2022/06/27 08:18:07;;;;;;;7.72;1.02;;;18.90;99.90;;;;;;5029505;28;20024;-88
2022/06/27 08:20:35;;;;;;;7.05;1.15;;;19.00;99.90;;;;;;5029371;28;20013;-89
2022/06/27 08:23:01;;;;;;;6.57;1.08;;;18.90;99.90;;;;;;5027951;28;20029;-88
2022/06/27 08:25:28;;;;;;;7.57;0.82;;;18.90;99.90;;;;;;5032197;28;20021;-89
2022/06/27 08:27:55;;;;;;;6.32;1.00;;;18.80;99.90;;;;;;5033537;28;20489;-89
2022/06/27 08:30:25;;;;;;;6.65;1.30;;;18.60;99.90;;;;;;5033425;28;20021;-88
2022/06/27 08:32:55;;;;;;;5.25;1.00;;;18.60;99.90;;;;;;5032000;28;20113;-88
2022/06/27 08:35:24;;;;;;;4.00;0.98;;;18.80;99.90;;;;;;5033015;28;20044;-88
2022/06/27 08:37:50;;;;;;;5.35;1.10;;;18.90;99.90;;;;;;5032201;28;20021;-89
2022/06/27 08:40:17;;;;;;;8.45;1.20;;;18.80;99.90;;;;;;5040353;28;20025;-89
2022/06/27 08:42:44;;;;;;;6.72;1.45;;;18.80;99.90;;;;;;5032237;28;20046;-89
2022/06/27 08:45:15;;;;;;;6.53;1.33;;;18.90;99.90;;;;;;5039786;28;20056;-88
2022/06/27 08:47:41;;;;;;;7.78;1.40;;;18.90;99.90;;;;;;5031719;28;20172;-89
2022/06/27 08:50:08;;;;;;;3.88;1.13;;;19.10;99.90;;;;;;5033175;28;20122;-88
2022/06/27 08:52:39;;;;;;;3.28;0.80;;;19.20;99.90;;;;;;5036653;28;20053;-88
2022/06/27 08:55:09;;;;;;;5.20;0.85;;;19.20;99.90;;;;;;5032870;28;20025;-89
2022/06/27 08:57:39;;;;;;;3.72;1.23;;;19.20;99.90;;;;;;5032826;28;20035;-88
2022/06/27 09:00:06;;;;;;;5.30;0.98;;;19.40;99.90;;;;;;5032843;28;20021;-88
2022/06/27 09:02:42;;;;;;;6.57;1.10;;;19.50;99.90;;;;;;5032739;28;20489;-89
2022/06/27 09:05:26;;;;;;;4.78;1.00;;;19.40;99.90;;;;;;5032724;28;20024;-89
2022/06/27 09:07:56;;;;;;;6.35;1.02;;;19.50;99.90;;;;;;5032572;28;20029;-88
2022/06/27 09:10:28;;;;;;;7.10;0.80;;;19.60;99.90;;;;;;5031390;28;20183;-88
2022/06/27 09:13:06;;;;;;;6.00;0.90;;;19.60;99.90;;;;;;5031249;28;20508;-89
2022/06/27 09:15:53;;;;;;;7.60;0.88;;;19.50;99.90;;;;;;5031226;28;20029;-89
2022/06/27 09:18:25;;;;;;;4.90;0.70;;;19.40;99.90;;;;;;5032468;28;20039;-88
2022/06/27 09:20:52;;;;;;;5.32;0.90;;;19.50;99.90;;;;;;5032537;28;20018;-89
2022/06/27 09:23:49;;;;;;;7.18;1.75;;;19.50;99.90;;;;;;5034356;28;20042;-88
2022/06/27 09:26:25;;;;;;;5.32;1.00;;;19.60;99.90;;;;;;5032311;28;20028;-88
2022/06/27 09:29:00;;;;;;;6.68;1.25;;;19.70;99.90;;;;;;5032517;28;20100;-89
2022/06/27 09:31:28;;;;;;;5.68;0.75;;;19.70;99.90;;;;;;5031067;28;20029;-88
2022/06/27 09:34:14;;;;;;;7.35;1.20;;;19.80;99.90;;;;;;5032374;28;20114;-89
2022/06/27 09:36:46;;;;;;;7.07;0.88;;;19.80;99.90;;;;;;5031990;28;20026;-89
2022/06/27 09:39:19;;;;;;;6.05;1.27;;;19.80;99.90;;;;;;5032443;28;20167;-89
2022/06/27 09:42:10;;;;;;;4.40;0.85;;;19.70;99.90;;;;;;5030695;28;20103;-90
2022/06/27 09:44:44;;;;;;;7.57;0.85;;;19.70;99.90;;;;;;5041060;28;20021;-89
2022/06/27 09:47:24;;;;;;;4.63;0.90;;;19.70;99.90;;;;;;5030850;28;20116;-88
2022/06/27 09:49:52;;;;;;;9.13;1.20;;;19.80;99.90;;;;;;5030673;28;20041;-89
2022/06/27 09:52:24;;;;;;;6.65;1.17;;;19.90;99.90;;;;;;5042003;28;20021;-89
2022/06/27 09:54:52;;;;;;;6.15;0.90;;;19.90;99.90;;;;;;5034362;28;20017;-88
2022/06/27 09:57:19;;;;;;;5.00;0.88;;;19.90;99.90;;;;;;5031833;28;20024;-89
2022/06/27 09:59:47;;;;;;;3.33;0.82;;;19.80;99.90;;;;;;5030290;28;20021;-88
2022/06/27 10:02:19;;;;;;;6.32;1.00;;;19.90;99.90;;;;;;5032065;28;20363;-88
2022/06/27 10:04:46;;;;;;;4.57;1.50;;;19.90;99.90;;;;;;5031413;28;20036;-89
2022/06/27 10:07:13;;;;;;;5.63;0.90;;;20.00;99.90;;;;;;5031452;28;20100;-88
2022/06/27 10:09:42;;;;;;;5.95;1.00;;;20.10;99.90;;;;;;5031548;28;20021;-89
2022/06/27 10:12:24;;;;;;;5.95;1.02;;;20.10;99.90;;;;;;5044895;28;20029;-89
2022/06/27 10:15:14;;;;;;;5.03;0.95;;;20.10;99.90;;;;;;5042513;28;20060;-89
2022/06/27 10:17:46;;;;;;;4.45;0.90;;;20.10;99.90;;;;;;5035564;28;20037;-90
2022/06/27 10:20:21;;;;;;;4.72;1.25;;;20.00;99.90;;;;;;5029851;28;20445;-88
2022/06/27 10:23:07;;;;;;;4.75;1.02;;;20.00;99.90;;;;;;5031260;28;20501;-89
2022/06/27 10:25:33;;;;;;;5.00;1.35;;;20.20;99.90;;;;;;5025855;28;20249;-90
2022/06/27 10:28:12;;;;;;;7.20;1.10;;;20.20;99.90;;;;;;5031309;28;20021;-90
2022/06/27 10:30:45;;;;;;;8.30;1.00;;;20.20;99.90;;;;;;5031414;28;20025;-89
2022/06/27 10:33:31;;;;;;;5.40;1.15;;;20.50;99.90;;;;;;5031449;28;20025;-90
2022/06/27 10:36:02;;;;;;;5.85;1.05;;;20.50;99.90;;;;;;5031965;28;20026;-90
2022/06/27 10:38:40;;;;;;;6.88;1.17;;;20.50;99.90;;;;;;5031304;28;20025;-89
2022/06/27 10:41:08;;;;;;;6.63;1.30;;;20.50;99.90;;;;;;5033895;28;20017;-90
2022/06/27 10:43:36;;;;;;;5.95;1.27;;;20.40;99.90;;;;;;5029182;28;20429;-90
2022/06/27 10:46:11;;;;;;;7.28;1.25;;;20.30;99.90;;;;;;5029509;28;20385;-90
2022/06/27 10:48:36;;;;;;;;;;;20.40;99.90;;;;;;5036200;28;20025;-92
2022/06/27 10:51:21;;;;;;;5.25;0.80;;;20.30;99.90;;;;;;5030300;28;19919;-91
2022/06/27 10:54:14;;;;;;;7.25;0.88;;;20.40;99.90;;;;;;5031936;28;20022;-90
2022/06/27 10:56:42;;;;;;;10.07;1.30;;;20.50;99.90;;;;;;5041028;28;20057;-90
2022/06/27 10:59:14;;;;;;;6.00;1.00;;;20.60;99.90;;;;;;5031729;28;20067;-87
2022/06/27 11:01:57;;;;;;;4.70;0.73;;;20.60;99.90;;;;;;5041652;28;20079;-81
2022/06/27 11:04:30;;;;;;;4.75;0.80;;;20.60;99.90;;;;;;5030763;28;20588;-84
2022/06/27 11:07:04;;;;;;;4.85;0.90;;;20.90;99.90;;;;;;5030623;28;20018;-85
2022/06/27 11:09:38;;;;;;;6.25;0.80;;;20.80;99.90;;;;;;5030552;28;20087;-86
2022/06/27 11:12:08;;;;;;;3.95;0.88;;;20.80;99.90;;;;;;5030328;28;20025;-85
2022/06/27 11:14:58;;;;;;;6.32;0.98;;;20.90;99.90;;;;;;5030513;28;20037;-85
2022/06/27 11:17:33;;;;;;;3.22;0.80;;;20.90;99.90;;;;;;5028872;28;20091;-86
2022/06/27 11:20:12;;;;;;;2.97;0.77;;;21.00;99.90;;;;;;5029959;28;20033;-85
2022/06/27 11:22:58;;;;;;;4.75;1.27;;;21.10;99.90;;;;;;5028720;28;20022;-86
2022/06/27 11:25:27;;;;;;;4.07;0.80;;;21.20;99.90;;;;;;5030314;28;20026;-85
2022/06/27 11:33:30;;;;;;;;;;;21.30;99.00;;;;;;5030942;28;20040;-85
2022/06/27 11:35:57;;;;;;;4.20;1.13;;;21.30;99.20;;;;;;5033783;28;20357;-85
2022/06/27 11:38:48;;;;;;;5.18;1.25;;;21.20;99.40;;;;;;5037858;28;20030;-86
2022/06/27 11:41:26;;;;;;;5.85;1.02;;;21.20;99.20;;;;;;5037569;28;20032;-85
2022/06/27 11:43:54;;;;;;;5.88;1.33;;;21.20;99.80;;;;;;5028211;28;20044;-85
2022/06/27 11:46:33;;;;;;;3.22;0.90;;;21.40;99.10;;;;;;5029901;28;20076;-85
2022/06/27 11:49:09;;;;;;;5.05;0.90;;;21.30;99.60;;;;;;5029723;28;20037;-85
2022/06/27 11:51:43;;;;;;;11.70;1.17;;;21.50;99.40;;;;;;5034324;28;20420;-86
2022/06/27 11:54:17;;;;;;;6.68;0.90;;;21.60;99.50;;;;;;5037993;28;20105;-85
2022/06/27 11:56:46;;;;;;;4.40;0.60;;;21.80;99.60;;;;;;5029818;28;20022;-86
2022/06/27 11:59:13;;;;;;;3.38;0.88;;;21.80;99.20;;;;;;5032569;28;20034;-86
2022/06/27 12:01:59;;;;;;;5.68;0.93;;;21.80;99.90;;;;;;5033741;28;20105;-85
2022/06/27 12:04:32;;;;;;;6.95;1.05;;;21.80;99.60;;;;;;5033586;28;20476;-85
2022/06/27 12:07:04;;;;;;;3.95;1.08;;;21.80;99.90;;;;;;5033719;28;20037;-85
2022/06/27 12:09:30;;;;;;;6.03;1.13;;;21.90;99.80;;;;;;5033888;28;20105;-86
2022/06/27 12:12:00;;;;;;;4.88;0.85;;;22.20;99.30;;;;;;5032491;28;20116;-85
2022/06/27 12:14:27;;;;;;;4.15;1.00;;;22.30;99.30;;;;;;5032469;28;20014;-86
2022/06/27 12:16:58;;;;;;;4.20;0.90;;;22.80;98.40;;;;;;5033807;28;20608;-85
2022/06/27 12:19:26;;;;;;;3.47;0.70;;;22.50;98.20;;;;;;5033553;28;20108;-85
2022/06/27 12:21:52;;;;;;;5.32;0.95;;;22.50;98.90;;;;;;5033806;28;20034;-86
2022/06/27 12:24:19;;;;;;;3.78;0.60;;;22.60;99.00;;;;;;5033392;28;20049;-86
2022/06/27 12:26:45;;;;;;;4.03;0.80;;;22.60;98.50;;;;;;5033651;28;20029;-86
2022/06/27 12:29:11;;;;;;;3.40;0.98;;;22.50;98.70;;;;;;5033709;28;20013;-85
2022/06/27 12:31:38;;;;;;;4.13;1.05;;;22.60;97.90;;;;;;5033712;28;20029;-86
2022/06/27 12:34:04;;;;;;;3.03;0.88;;;22.80;98.20;;;;;;5033225;28;20079;-86
2022/06/27 12:36:31;;;;;;;4.47;1.00;;;23.20;97.80;;;;;;5033585;28;20031;-86
2022/06/27 12:38:58;;;;;;;3.95;0.65;;;23.10;97.60;;;;;;5033128;28;20031;-86
2022/06/27 12:41:24;;;;;;;3.47;0.80;;;23.00;97.60;;;;;;5033109;28;20029;-86
2022/06/27 12:43:50;;;;;;;3.85;1.00;;;23.20;97.00;;;;;;5031727;28;20037;-86
2022/06/27 12:46:20;;;;;;;2.95;0.70;;;23.40;97.70;;;;;;5033423;28;20013;-85
2022/06/27 12:48:46;;;;;;;2.78;0.80;;;23.10;97.60;;;;;;5033491;28;20021;-85
2022/06/27 12:51:12;;;;;;;4.70;0.75;;;22.70;97.50;;;;;;5033934;28;20100;-85
2022/06/27 12:53:38;;;;;;;4.00;0.98;;;22.70;97.80;;;;;;5045192;28;20093;-87
2022/06/27 12:56:05;;;;;;;3.40;0.82;;;22.60;97.50;;;;;;5033132;28;20029;-85
2022/06/27 12:58:32;;;;;;;5.07;1.25;;;22.20;98.40;;;;;;5032826;28;20607;-86
2022/06/27 13:00:58;;;;;;;4.18;1.08;;;22.00;99.00;;;;;;5032813;28;20524;-86
2022/06/27 13:03:24;;;;;;;3.88;0.95;;;22.30;98.90;;;;;;5032915;28;20026;-86